sensor_id;sensor_type;location;lat;lon;timestamp;P1;durP1;ratioP1;P2;durP2;ratioP2
48847;SDS011;75039;51.970;5.660;2024-02-14T00:00:14;5.07;;;3.88;;
48847;SDS011;75039;51.970;5.660;2024-02-14T00:02:44;5.65;;;4.25;;
48847;SDS011;75039;51.970;5.660;2024-02-14T00:05:11;5.47;;;4.40;;
48847;SDS011;75039;51.970;5.660;2024-02-14T00:07:38;4.18;;;3.78;;
48847;SDS011;75039;51.970;5.660;2024-02-14T00:10:06;5.50;;;3.72;;
48847;SDS011;75039;51.970;5.660;2024-02-14T00:12:33;6.22;;;3.88;;
48847;SDS011;75039;51.970;5.660;2024-02-14T00:15:02;4.93;;;4.30;;
48847;SDS011;75039;51.970;5.660;2024-02-14T00:17:30;6.18;;;4.57;;
48847;SDS011;75039;51.970;5.660;2024-02-14T00:19:56;5.10;;;4.07;;
48847;SDS011;75039;51.970;5.660;2024-02-14T00:22:24;5.78;;;4.22;;
48847;SDS011;75039;51.970;5.660;2024-02-14T00:24:50;4.50;;;3.83;;
48847;SDS011;75039;51.970;5.660;2024-02-14T00:27:17;4.22;;;3.80;;
48847;SDS011;75039;51.970;5.660;2024-02-14T00:29:44;6.10;;;4.07;;
48847;SDS011;75039;51.970;5.660;2024-02-14T00:32:13;6.90;;;4.32;;
48847;SDS011;75039;51.970;5.660;2024-02-14T00:34:40;5.55;;;4.40;;
48847;SDS011;75039;51.970;5.660;2024-02-14T00:37:07;5.53;;;3.92;;
48847;SDS011;75039;51.970;5.660;2024-02-14T00:39:34;4.78;;;3.80;;
48847;SDS011;75039;51.970;5.660;2024-02-14T00:42:01;6.78;;;3.60;;
48847;SDS011;75039;51.970;5.660;2024-02-14T00:44:28;5.55;;;4.22;;
48847;SDS011;75039;51.970;5.660;2024-02-14T00:46:57;5.15;;;3.90;;
48847;SDS011;75039;51.970;5.660;2024-02-14T00:49:28;4.40;;;4.00;;
48847;SDS011;75039;51.970;5.660;2024-02-14T00:51:55;7.13;;;4.47;;
48847;SDS011;75039;51.970;5.660;2024-02-14T00:54:22;4.97;;;4.05;;
48847;SDS011;75039;51.970;5.660;2024-02-14T00:56:48;5.85;;;4.20;;
48847;SDS011;75039;51.970;5.660;2024-02-14T00:59:15;7.63;;;4.80;;
48847;SDS011;75039;51.970;5.660;2024-02-14T01:01:43;5.55;;;4.82;;
48847;SDS011;75039;51.970;5.660;2024-02-14T01:04:11;6.18;;;4.90;;
48847;SDS011;75039;51.970;5.660;2024-02-14T01:06:38;6.50;;;5.10;;
48847;SDS011;75039;51.970;5.660;2024-02-14T01:09:05;6.68;;;5.07;;
48847;SDS011;75039;51.970;5.660;2024-02-14T01:11:31;5.80;;;5.07;;
48847;SDS011;75039;51.970;5.660;2024-02-14T01:13:58;5.35;;;4.85;;
48847;SDS011;75039;51.970;5.660;2024-02-14T01:16:25;5.75;;;4.90;;
48847;SDS011;75039;51.970;5.660;2024-02-14T01:18:54;10.13;;;5.60;;
48847;SDS011;75039;51.970;5.660;2024-02-14T01:21:21;5.70;;;4.68;;
48847;SDS011;75039;51.970;5.660;2024-02-14T01:23:47;6.88;;;5.47;;
48847;SDS011;75039;51.970;5.660;2024-02-14T01:26:15;5.82;;;5.22;;
48847;SDS011;75039;51.970;5.660;2024-02-14T01:28:41;7.05;;;5.13;;
48847;SDS011;75039;51.970;5.660;2024-02-14T01:31:10;7.75;;;5.70;;
48847;SDS011;75039;51.970;5.660;2024-02-14T01:33:38;8.18;;;5.95;;
48847;SDS011;75039;51.970;5.660;2024-02-14T01:36:05;7.45;;;5.88;;
48847;SDS011;75039;51.970;5.660;2024-02-14T01:38:32;7.07;;;5.80;;
48847;SDS011;75039;51.970;5.660;2024-02-14T01:41:05;6.60;;;5.90;;
48847;SDS011;75039;51.970;5.660;2024-02-14T01:43:32;8.20;;;5.90;;
48847;SDS011;75039;51.970;5.660;2024-02-14T01:46:03;9.43;;;5.95;;
48847;SDS011;75039;51.970;5.660;2024-02-14T01:48:31;7.28;;;6.03;;
48847;SDS011;75039;51.970;5.660;2024-02-14T01:51:00;8.02;;;5.93;;
48847;SDS011;75039;51.970;5.660;2024-02-14T01:53:29;8.32;;;6.28;;
48847;SDS011;75039;51.970;5.660;2024-02-14T01:55:57;8.25;;;6.40;;
48847;SDS011;75039;51.970;5.660;2024-02-14T01:58:25;7.82;;;6.15;;
48847;SDS011;75039;51.970;5.660;2024-02-14T02:00:53;9.20;;;6.63;;
48847;SDS011;75039;51.970;5.660;2024-02-14T02:03:23;8.05;;;6.50;;
48847;SDS011;75039;51.970;5.660;2024-02-14T02:05:53;8.65;;;6.90;;
48847;SDS011;75039;51.970;5.660;2024-02-14T02:08:21;8.25;;;6.75;;
48847;SDS011;75039;51.970;5.660;2024-02-14T02:10:48;10.80;;;7.25;;
48847;SDS011;75039;51.970;5.660;2024-02-14T02:13:15;9.43;;;7.35;;
48847;SDS011;75039;51.970;5.660;2024-02-14T02:15:43;9.30;;;7.60;;
48847;SDS011;75039;51.970;5.660;2024-02-14T02:18:11;8.82;;;7.82;;
48847;SDS011;75039;51.970;5.660;2024-02-14T02:20:38;10.85;;;8.07;;
48847;SDS011;75039;51.970;5.660;2024-02-14T02:23:05;13.13;;;8.18;;
48847;SDS011;75039;51.970;5.660;2024-02-14T02:25:32;11.05;;;8.13;;
48847;SDS011;75039;51.970;5.660;2024-02-14T02:27:58;8.90;;;7.45;;
48847;SDS011;75039;51.970;5.660;2024-02-14T02:30:26;10.60;;;8.32;;
48847;SDS011;75039;51.970;5.660;2024-02-14T02:32:53;11.45;;;8.05;;
48847;SDS011;75039;51.970;5.660;2024-02-14T02:35:20;8.93;;;7.45;;
48847;SDS011;75039;51.970;5.660;2024-02-14T02:37:47;10.65;;;8.05;;
48847;SDS011;75039;51.970;5.660;2024-02-14T02:40:17;10.73;;;8.32;;
48847;SDS011;75039;51.970;5.660;2024-02-14T02:42:43;10.70;;;7.95;;
48847;SDS011;75039;51.970;5.660;2024-02-14T02:45:14;13.77;;;8.30;;
48847;SDS011;75039;51.970;5.660;2024-02-14T02:47:40;10.30;;;7.85;;
48847;SDS011;75039;51.970;5.660;2024-02-14T02:50:07;10.77;;;7.50;;
48847;SDS011;75039;51.970;5.660;2024-02-14T02:52:35;9.27;;;7.30;;
48847;SDS011;75039;51.970;5.660;2024-02-14T02:55:01;10.98;;;7.97;;
48847;SDS011;75039;51.970;5.660;2024-02-14T02:57:28;11.45;;;8.05;;
48847;SDS011;75039;51.970;5.660;2024-02-14T02:59:55;8.65;;;7.18;;
48847;SDS011;75039;51.970;5.660;2024-02-14T03:02:22;11.95;;;7.35;;
48847;SDS011;75039;51.970;5.660;2024-02-14T03:04:49;9.30;;;7.53;;
48847;SDS011;75039;51.970;5.660;2024-02-14T03:07:21;9.13;;;7.18;;
48847;SDS011;75039;51.970;5.660;2024-02-14T03:09:49;9.88;;;8.00;;
48847;SDS011;75039;51.970;5.660;2024-02-14T03:12:16;8.52;;;7.63;;
48847;SDS011;75039;51.970;5.660;2024-02-14T03:14:45;9.32;;;7.68;;
48847;SDS011;75039;51.970;5.660;2024-02-14T03:17:13;8.25;;;7.30;;
48847;SDS011;75039;51.970;5.660;2024-02-14T03:19:40;10.68;;;8.35;;
48847;SDS011;75039;51.970;5.660;2024-02-14T03:22:06;11.90;;;7.80;;
48847;SDS011;75039;51.970;5.660;2024-02-14T03:24:35;12.90;;;9.05;;
48847;SDS011;75039;51.970;5.660;2024-02-14T03:27:03;11.82;;;9.10;;
48847;SDS011;75039;51.970;5.660;2024-02-14T03:29:34;10.85;;;8.88;;
48847;SDS011;75039;51.970;5.660;2024-02-14T03:32:02;10.60;;;9.02;;
48847;SDS011;75039;51.970;5.660;2024-02-14T03:34:31;11.48;;;9.20;;
48847;SDS011;75039;51.970;5.660;2024-02-14T03:37:02;11.25;;;9.40;;
48847;SDS011;75039;51.970;5.660;2024-02-14T03:39:29;10.65;;;9.55;;
48847;SDS011;75039;51.970;5.660;2024-02-14T03:41:56;18.98;;;10.35;;
48847;SDS011;75039;51.970;5.660;2024-02-14T03:44:23;12.07;;;10.60;;
48847;SDS011;75039;51.970;5.660;2024-02-14T03:46:50;14.00;;;10.55;;
48847;SDS011;75039;51.970;5.660;2024-02-14T03:49:16;14.70;;;11.27;;
48847;SDS011;75039;51.970;5.660;2024-02-14T03:51:43;13.93;;;11.15;;
48847;SDS011;75039;51.970;5.660;2024-02-14T03:54:10;13.88;;;10.82;;
48847;SDS011;75039;51.970;5.660;2024-02-14T03:56:38;14.48;;;10.95;;
48847;SDS011;75039;51.970;5.660;2024-02-14T03:59:05;14.32;;;10.98;;
48847;SDS011;75039;51.970;5.660;2024-02-14T04:01:32;12.68;;;11.18;;
48847;SDS011;75039;51.970;5.660;2024-02-14T04:03:59;14.80;;;11.20;;
48847;SDS011;75039;51.970;5.660;2024-02-14T04:06:26;12.82;;;10.88;;
48847;SDS011;75039;51.970;5.660;2024-02-14T04:08:53;14.38;;;11.50;;
48847;SDS011;75039;51.970;5.660;2024-02-14T04:11:20;14.63;;;11.85;;
48847;SDS011;75039;51.970;5.660;2024-02-14T04:13:46;15.35;;;11.73;;
48847;SDS011;75039;51.970;5.660;2024-02-14T04:16:13;13.93;;;11.10;;
48847;SDS011;75039;51.970;5.660;2024-02-14T04:18:40;19.17;;;12.38;;
48847;SDS011;75039;51.970;5.660;2024-02-14T04:21:11;13.82;;;12.35;;
48847;SDS011;75039;51.970;5.660;2024-02-14T04:23:38;16.52;;;12.02;;
48847;SDS011;75039;51.970;5.660;2024-02-14T04:26:06;17.85;;;13.13;;
48847;SDS011;75039;51.970;5.660;2024-02-14T04:28:34;17.33;;;12.93;;
48847;SDS011;75039;51.970;5.660;2024-02-14T04:31:01;15.43;;;12.05;;
48847;SDS011;75039;51.970;5.660;2024-02-14T04:33:28;15.88;;;12.75;;
48847;SDS011;75039;51.970;5.660;2024-02-14T04:35:56;17.58;;;12.93;;
48847;SDS011;75039;51.970;5.660;2024-02-14T04:38:23;17.08;;;13.45;;
48847;SDS011;75039;51.970;5.660;2024-02-14T04:40:50;14.70;;;13.18;;
48847;SDS011;75039;51.970;5.660;2024-02-14T04:43:16;15.15;;;13.45;;
48847;SDS011;75039;51.970;5.660;2024-02-14T04:45:43;16.27;;;13.10;;
48847;SDS011;75039;51.970;5.660;2024-02-14T04:48:14;15.90;;;13.57;;
48847;SDS011;75039;51.970;5.660;2024-02-14T04:50:41;15.25;;;13.07;;
48847;SDS011;75039;51.970;5.660;2024-02-14T04:53:09;19.00;;;13.70;;
48847;SDS011;75039;51.970;5.660;2024-02-14T04:55:35;16.23;;;13.18;;
48847;SDS011;75039;51.970;5.660;2024-02-14T04:58:02;15.43;;;12.63;;
48847;SDS011;75039;51.970;5.660;2024-02-14T05:00:28;17.27;;;14.07;;
48847;SDS011;75039;51.970;5.660;2024-02-14T05:02:55;16.20;;;14.00;;
48847;SDS011;75039;51.970;5.660;2024-02-14T05:05:23;16.63;;;13.98;;
48847;SDS011;75039;51.970;5.660;2024-02-14T05:07:50;17.88;;;13.02;;
48847;SDS011;75039;51.970;5.660;2024-02-14T05:10:16;20.33;;;14.30;;
48847;SDS011;75039;51.970;5.660;2024-02-14T05:12:43;19.27;;;14.02;;
48847;SDS011;75039;51.970;5.660;2024-02-14T05:15:10;20.10;;;14.70;;
48847;SDS011;75039;51.970;5.660;2024-02-14T05:17:41;20.17;;;14.45;;
48847;SDS011;75039;51.970;5.660;2024-02-14T05:20:10;15.68;;;13.90;;
48847;SDS011;75039;51.970;5.660;2024-02-14T05:22:37;22.25;;;15.32;;
48847;SDS011;75039;51.970;5.660;2024-02-14T05:25:05;22.80;;;14.40;;
48847;SDS011;75039;51.970;5.660;2024-02-14T05:27:35;18.27;;;13.65;;
48847;SDS011;75039;51.970;5.660;2024-02-14T05:30:03;17.63;;;13.32;;
48847;SDS011;75039;51.970;5.660;2024-02-14T05:32:35;17.50;;;14.13;;
48847;SDS011;75039;51.970;5.660;2024-02-14T05:35:02;21.55;;;14.05;;
48847;SDS011;75039;51.970;5.660;2024-02-14T05:37:32;17.42;;;13.20;;
48847;SDS011;75039;51.970;5.660;2024-02-14T05:40:04;17.67;;;12.52;;
48847;SDS011;75039;51.970;5.660;2024-02-14T05:42:33;18.98;;;12.18;;
48847;SDS011;75039;51.970;5.660;2024-02-14T05:45:00;16.10;;;13.35;;
48847;SDS011;75039;51.970;5.660;2024-02-14T05:47:29;15.80;;;12.60;;
48847;SDS011;75039;51.970;5.660;2024-02-14T05:49:56;19.48;;;13.50;;
48847;SDS011;75039;51.970;5.660;2024-02-14T05:52:23;18.25;;;13.27;;
48847;SDS011;75039;51.970;5.660;2024-02-14T05:54:49;14.50;;;13.00;;
48847;SDS011;75039;51.970;5.660;2024-02-14T05:57:16;15.52;;;12.98;;
48847;SDS011;75039;51.970;5.660;2024-02-14T05:59:43;14.52;;;12.45;;
48847;SDS011;75039;51.970;5.660;2024-02-14T06:02:11;14.48;;;12.90;;
48847;SDS011;75039;51.970;5.660;2024-02-14T06:04:38;19.05;;;12.60;;
48847;SDS011;75039;51.970;5.660;2024-02-14T06:07:05;19.77;;;13.27;;
48847;SDS011;75039;51.970;5.660;2024-02-14T06:09:33;14.18;;;12.07;;
48847;SDS011;75039;51.970;5.660;2024-02-14T06:11:59;16.92;;;13.20;;
48847;SDS011;75039;51.970;5.660;2024-02-14T06:14:26;14.88;;;13.27;;
48847;SDS011;75039;51.970;5.660;2024-02-14T06:16:55;14.93;;;13.18;;
48847;SDS011;75039;51.970;5.660;2024-02-14T06:19:22;15.32;;;13.45;;
48847;SDS011;75039;51.970;5.660;2024-02-14T06:21:49;14.90;;;13.32;;
48847;SDS011;75039;51.970;5.660;2024-02-14T06:24:15;15.40;;;13.75;;
48847;SDS011;75039;51.970;5.660;2024-02-14T06:26:45;15.02;;;12.50;;
48847;SDS011;75039;51.970;5.660;2024-02-14T06:29:12;14.98;;;13.40;;
48847;SDS011;75039;51.970;5.660;2024-02-14T06:31:39;15.60;;;12.88;;
48847;SDS011;75039;51.970;5.660;2024-02-14T06:34:06;14.43;;;12.93;;
48847;SDS011;75039;51.970;5.660;2024-02-14T06:36:34;17.92;;;13.52;;
48847;SDS011;75039;51.970;5.660;2024-02-14T06:39:01;14.20;;;11.93;;
48847;SDS011;75039;51.970;5.660;2024-02-14T06:41:28;15.40;;;12.80;;
48847;SDS011;75039;51.970;5.660;2024-02-14T06:43:56;13.73;;;12.32;;
48847;SDS011;75039;51.970;5.660;2024-02-14T06:46:23;17.15;;;12.80;;
48847;SDS011;75039;51.970;5.660;2024-02-14T06:48:50;17.73;;;13.02;;
48847;SDS011;75039;51.970;5.660;2024-02-14T06:51:17;14.43;;;12.93;;
48847;SDS011;75039;51.970;5.660;2024-02-14T06:53:44;15.13;;;12.68;;
48847;SDS011;75039;51.970;5.660;2024-02-14T06:56:11;16.50;;;12.40;;
48847;SDS011;75039;51.970;5.660;2024-02-14T06:58:37;14.73;;;12.55;;
48847;SDS011;75039;51.970;5.660;2024-02-14T07:01:04;14.07;;;12.27;;
48847;SDS011;75039;51.970;5.660;2024-02-14T07:03:31;13.63;;;12.20;;
48847;SDS011;75039;51.970;5.660;2024-02-14T07:05:58;14.70;;;12.40;;
48847;SDS011;75039;51.970;5.660;2024-02-14T07:08:25;14.02;;;12.23;;
48847;SDS011;75039;51.970;5.660;2024-02-14T07:10:54;13.18;;;11.70;;
48847;SDS011;75039;51.970;5.660;2024-02-14T07:13:22;17.02;;;12.30;;
48847;SDS011;75039;51.970;5.660;2024-02-14T07:15:49;14.98;;;12.85;;
48847;SDS011;75039;51.970;5.660;2024-02-14T07:18:16;17.17;;;13.23;;
48847;SDS011;75039;51.970;5.660;2024-02-14T07:20:44;14.27;;;12.50;;
48847;SDS011;75039;51.970;5.660;2024-02-14T07:23:10;14.77;;;13.25;;
48847;SDS011;75039;51.970;5.660;2024-02-14T07:25:37;15.75;;;12.88;;
48847;SDS011;75039;51.970;5.660;2024-02-14T07:28:04;17.77;;;13.52;;
48847;SDS011;75039;51.970;5.660;2024-02-14T07:30:31;16.45;;;14.43;;
48847;SDS011;75039;51.970;5.660;2024-02-14T07:32:57;18.48;;;14.10;;
48847;SDS011;75039;51.970;5.660;2024-02-14T07:35:24;20.15;;;14.68;;
48847;SDS011;75039;51.970;5.660;2024-02-14T07:37:52;19.38;;;15.07;;
48847;SDS011;75039;51.970;5.660;2024-02-14T07:40:19;17.45;;;15.02;;
48847;SDS011;75039;51.970;5.660;2024-02-14T07:42:45;21.00;;;15.60;;
48847;SDS011;75039;51.970;5.660;2024-02-14T07:45:12;18.30;;;14.88;;
48847;SDS011;75039;51.970;5.660;2024-02-14T07:47:40;19.63;;;15.27;;
48847;SDS011;75039;51.970;5.660;2024-02-14T07:50:07;20.70;;;15.93;;
48847;SDS011;75039;51.970;5.660;2024-02-14T07:52:35;20.02;;;16.33;;
48847;SDS011;75039;51.970;5.660;2024-02-14T07:55:02;22.77;;;16.58;;
48847;SDS011;75039;51.970;5.660;2024-02-14T07:57:29;20.85;;;15.82;;
48847;SDS011;75039;51.970;5.660;2024-02-14T07:59:56;20.83;;;15.80;;
48847;SDS011;75039;51.970;5.660;2024-02-14T08:02:23;19.13;;;15.50;;
48847;SDS011;75039;51.970;5.660;2024-02-14T08:04:49;18.95;;;14.63;;
48847;SDS011;75039;51.970;5.660;2024-02-14T08:07:18;20.10;;;15.82;;
48847;SDS011;75039;51.970;5.660;2024-02-14T08:09:45;19.30;;;15.10;;
48847;SDS011;75039;51.970;5.660;2024-02-14T08:12:11;19.73;;;15.20;;
48847;SDS011;75039;51.970;5.660;2024-02-14T08:14:39;18.05;;;14.75;;
48847;SDS011;75039;51.970;5.660;2024-02-14T08:17:05;17.10;;;14.82;;
48847;SDS011;75039;51.970;5.660;2024-02-14T08:19:32;17.35;;;14.63;;
48847;SDS011;75039;51.970;5.660;2024-02-14T08:21:59;15.70;;;14.00;;
48847;SDS011;75039;51.970;5.660;2024-02-14T08:24:27;15.80;;;13.25;;
48847;SDS011;75039;51.970;5.660;2024-02-14T08:26:54;15.32;;;13.65;;
48847;SDS011;75039;51.970;5.660;2024-02-14T08:29:21;19.13;;;14.13;;
48847;SDS011;75039;51.970;5.660;2024-02-14T08:31:48;16.50;;;13.65;;
48847;SDS011;75039;51.970;5.660;2024-02-14T08:34:15;16.95;;;14.50;;
48847;SDS011;75039;51.970;5.660;2024-02-14T08:36:45;17.10;;;13.77;;
48847;SDS011;75039;51.970;5.660;2024-02-14T08:39:12;15.10;;;13.27;;
48847;SDS011;75039;51.970;5.660;2024-02-14T08:41:39;16.92;;;14.43;;
48847;SDS011;75039;51.970;5.660;2024-02-14T08:44:07;15.50;;;13.73;;
48847;SDS011;75039;51.970;5.660;2024-02-14T08:46:34;18.50;;;13.52;;
48847;SDS011;75039;51.970;5.660;2024-02-14T08:49:01;17.05;;;13.10;;
48847;SDS011;75039;51.970;5.660;2024-02-14T08:51:38;16.90;;;14.02;;
48847;SDS011;75039;51.970;5.660;2024-02-14T08:54:05;18.60;;;14.18;;
48847;SDS011;75039;51.970;5.660;2024-02-14T08:56:33;18.35;;;15.50;;
48847;SDS011;75039;51.970;5.660;2024-02-14T08:59:00;17.70;;;14.52;;
48847;SDS011;75039;51.970;5.660;2024-02-14T09:01:29;17.38;;;15.00;;
48847;SDS011;75039;51.970;5.660;2024-02-14T09:03:56;17.08;;;14.82;;
48847;SDS011;75039;51.970;5.660;2024-02-14T09:06:23;19.85;;;15.82;;
48847;SDS011;75039;51.970;5.660;2024-02-14T09:08:50;21.70;;;16.02;;
48847;SDS011;75039;51.970;5.660;2024-02-14T09:11:17;17.95;;;14.82;;
48847;SDS011;75039;51.970;5.660;2024-02-14T09:13:44;19.45;;;15.35;;
48847;SDS011;75039;51.970;5.660;2024-02-14T09:16:14;16.38;;;14.10;;
48847;SDS011;75039;51.970;5.660;2024-02-14T09:18:41;17.70;;;15.35;;
48847;SDS011;75039;51.970;5.660;2024-02-14T09:21:10;15.73;;;14.02;;
48847;SDS011;75039;51.970;5.660;2024-02-14T09:23:42;17.45;;;14.18;;
48847;SDS011;75039;51.970;5.660;2024-02-14T09:26:11;14.85;;;13.30;;
48847;SDS011;75039;51.970;5.660;2024-02-14T09:28:41;17.20;;;13.63;;
48847;SDS011;75039;51.970;5.660;2024-02-14T09:31:10;15.63;;;13.82;;
48847;SDS011;75039;51.970;5.660;2024-02-14T09:33:38;17.50;;;13.48;;
48847;SDS011;75039;51.970;5.660;2024-02-14T09:36:06;16.95;;;13.90;;
48847;SDS011;75039;51.970;5.660;2024-02-14T09:38:34;19.23;;;13.70;;
48847;SDS011;75039;51.970;5.660;2024-02-14T09:41:06;15.50;;;12.90;;
48847;SDS011;75039;51.970;5.660;2024-02-14T09:43:45;17.58;;;13.07;;
48847;SDS011;75039;51.970;5.660;2024-02-14T09:46:13;19.23;;;14.13;;
48847;SDS011;75039;51.970;5.660;2024-02-14T09:48:43;17.45;;;13.00;;
48847;SDS011;75039;51.970;5.660;2024-02-14T09:51:12;18.20;;;13.77;;
48847;SDS011;75039;51.970;5.660;2024-02-14T09:53:39;17.55;;;13.60;;
48847;SDS011;75039;51.970;5.660;2024-02-14T09:56:09;20.95;;;14.85;;
48847;SDS011;75039;51.970;5.660;2024-02-14T09:58:37;18.70;;;14.10;;
48847;SDS011;75039;51.970;5.660;2024-02-14T10:01:04;18.15;;;14.07;;
48847;SDS011;75039;51.970;5.660;2024-02-14T10:03:33;16.25;;;13.52;;
48847;SDS011;75039;51.970;5.660;2024-02-14T10:06:00;16.50;;;12.85;;
48847;SDS011;75039;51.970;5.660;2024-02-14T10:08:28;19.08;;;13.70;;
48847;SDS011;75039;51.970;5.660;2024-02-14T10:10:56;18.67;;;13.30;;
48847;SDS011;75039;51.970;5.660;2024-02-14T10:13:27;21.02;;;13.30;;
48847;SDS011;75039;51.970;5.660;2024-02-14T10:15:55;14.40;;;12.60;;
48847;SDS011;75039;51.970;5.660;2024-02-14T10:18:22;15.32;;;13.63;;
48847;SDS011;75039;51.970;5.660;2024-02-14T10:20:53;15.45;;;12.07;;
48847;SDS011;75039;51.970;5.660;2024-02-14T10:23:23;17.80;;;12.25;;
48847;SDS011;75039;51.970;5.660;2024-02-14T10:25:52;17.67;;;13.43;;
48847;SDS011;75039;51.970;5.660;2024-02-14T10:28:20;17.33;;;12.65;;
48847;SDS011;75039;51.970;5.660;2024-02-14T10:33:47;17.40;;;14.10;;
48847;SDS011;75039;51.970;5.660;2024-02-14T10:36:14;20.95;;;13.45;;
48847;SDS011;75039;51.970;5.660;2024-02-14T10:38:44;17.08;;;12.88;;
48847;SDS011;75039;51.970;5.660;2024-02-14T10:41:16;17.40;;;14.18;;
48847;SDS011;75039;51.970;5.660;2024-02-14T10:43:44;18.75;;;13.70;;
48847;SDS011;75039;51.970;5.660;2024-02-14T10:46:20;19.30;;;12.93;;
48847;SDS011;75039;51.970;5.660;2024-02-14T10:48:50;16.55;;;13.10;;
48847;SDS011;75039;51.970;5.660;2024-02-14T10:51:23;16.95;;;13.23;;
48847;SDS011;75039;51.970;5.660;2024-02-14T10:53:51;16.40;;;12.90;;
48847;SDS011;75039;51.970;5.660;2024-02-14T10:56:19;18.17;;;12.50;;
48847;SDS011;75039;51.970;5.660;2024-02-14T10:58:46;18.15;;;13.15;;
48847;SDS011;75039;51.970;5.660;2024-02-14T11:01:15;18.05;;;13.18;;
48847;SDS011;75039;51.970;5.660;2024-02-14T11:03:43;14.45;;;12.25;;
48847;SDS011;75039;51.970;5.660;2024-02-14T11:06:17;16.35;;;12.48;;
48847;SDS011;75039;51.970;5.660;2024-02-14T11:11:34;18.27;;;12.65;;
48847;SDS011;75039;51.970;5.660;2024-02-14T11:14:01;16.15;;;11.65;;
48847;SDS011;75039;51.970;5.660;2024-02-14T11:16:30;15.43;;;12.27;;
48847;SDS011;75039;51.970;5.660;2024-02-14T11:19:05;16.38;;;12.40;;
48847;SDS011;75039;51.970;5.660;2024-02-14T11:21:40;15.85;;;11.57;;
48847;SDS011;75039;51.970;5.660;2024-02-14T11:24:17;14.48;;;11.70;;
48847;SDS011;75039;51.970;5.660;2024-02-14T11:26:48;13.43;;;11.07;;
48847;SDS011;75039;51.970;5.660;2024-02-14T11:29:18;15.98;;;11.65;;
48847;SDS011;75039;51.970;5.660;2024-02-14T11:31:56;17.02;;;10.98;;
48847;SDS011;75039;51.970;5.660;2024-02-14T11:34:25;17.85;;;12.00;;
48847;SDS011;75039;51.970;5.660;2024-02-14T11:36:52;18.15;;;11.25;;
48847;SDS011;75039;51.970;5.660;2024-02-14T11:39:20;15.60;;;10.88;;
48847;SDS011;75039;51.970;5.660;2024-02-14T11:41:47;16.27;;;10.88;;
48847;SDS011;75039;51.970;5.660;2024-02-14T11:44:16;13.23;;;10.88;;
48847;SDS011;75039;51.970;5.660;2024-02-14T11:46:45;15.20;;;10.80;;
48847;SDS011;75039;51.970;5.660;2024-02-14T11:49:12;11.55;;;9.95;;
48847;SDS011;75039;51.970;5.660;2024-02-14T11:51:39;13.13;;;9.95;;
48847;SDS011;75039;51.970;5.660;2024-02-14T11:54:07;12.52;;;9.35;;
48847;SDS011;75039;51.970;5.660;2024-02-14T11:56:36;10.35;;;9.10;;
48847;SDS011;75039;51.970;5.660;2024-02-14T11:59:05;12.63;;;8.50;;
48847;SDS011;75039;51.970;5.660;2024-02-14T12:01:33;13.25;;;9.13;;
48847;SDS011;75039;51.970;5.660;2024-02-14T12:04:02;10.82;;;9.15;;
48847;SDS011;75039;51.970;5.660;2024-02-14T12:06:31;12.65;;;8.80;;
48847;SDS011;75039;51.970;5.660;2024-02-14T12:09:01;13.32;;;8.68;;
48847;SDS011;75039;51.970;5.660;2024-02-14T12:11:32;10.55;;;8.20;;
48847;SDS011;75039;51.970;5.660;2024-02-14T12:14:02;9.77;;;7.80;;
48847;SDS011;75039;51.970;5.660;2024-02-14T12:16:31;13.95;;;8.05;;
48847;SDS011;75039;51.970;5.660;2024-02-14T12:19:05;13.13;;;7.57;;
48847;SDS011;75039;51.970;5.660;2024-02-14T12:21:42;10.48;;;8.65;;
48847;SDS011;75039;51.970;5.660;2024-02-14T12:24:11;10.55;;;8.38;;
48847;SDS011;75039;51.970;5.660;2024-02-14T12:26:41;9.75;;;7.22;;
48847;SDS011;75039;51.970;5.660;2024-02-14T12:29:13;9.82;;;8.43;;
48847;SDS011;75039;51.970;5.660;2024-02-14T12:31:40;9.25;;;7.78;;
48847;SDS011;75039;51.970;5.660;2024-02-14T12:34:11;8.63;;;7.55;;
48847;SDS011;75039;51.970;5.660;2024-02-14T12:36:39;10.68;;;7.60;;
48847;SDS011;75039;51.970;5.660;2024-02-14T12:39:06;10.82;;;7.65;;
48847;SDS011;75039;51.970;5.660;2024-02-14T12:41:35;9.73;;;7.63;;
48847;SDS011;75039;51.970;5.660;2024-02-14T12:44:05;8.88;;;7.13;;
48847;SDS011;75039;51.970;5.660;2024-02-14T12:46:33;8.70;;;7.03;;
48847;SDS011;75039;51.970;5.660;2024-02-14T12:49:00;8.13;;;7.03;;
48847;SDS011;75039;51.970;5.660;2024-02-14T12:51:27;8.15;;;6.50;;
48847;SDS011;75039;51.970;5.660;2024-02-14T12:53:55;7.18;;;6.47;;
48847;SDS011;75039;51.970;5.660;2024-02-14T12:56:22;6.60;;;5.97;;
48847;SDS011;75039;51.970;5.660;2024-02-14T12:58:49;7.53;;;6.25;;
48847;SDS011;75039;51.970;5.660;2024-02-14T13:01:16;7.00;;;6.10;;
48847;SDS011;75039;51.970;5.660;2024-02-14T13:03:44;6.45;;;5.72;;
48847;SDS011;75039;51.970;5.660;2024-02-14T13:06:12;6.05;;;5.45;;
48847;SDS011;75039;51.970;5.660;2024-02-14T13:08:40;7.32;;;5.20;;
48847;SDS011;75039;51.970;5.660;2024-02-14T13:11:09;6.75;;;4.97;;
48847;SDS011;75039;51.970;5.660;2024-02-14T13:13:36;7.32;;;5.13;;
48847;SDS011;75039;51.970;5.660;2024-02-14T13:16:04;5.43;;;4.90;;
48847;SDS011;75039;51.970;5.660;2024-02-14T13:18:33;5.90;;;4.60;;
48847;SDS011;75039;51.970;5.660;2024-02-14T13:21:01;6.57;;;4.50;;
48847;SDS011;75039;51.970;5.660;2024-02-14T13:23:29;5.40;;;4.70;;
48847;SDS011;75039;51.970;5.660;2024-02-14T13:25:56;5.68;;;5.10;;
48847;SDS011;75039;51.970;5.660;2024-02-14T13:28:22;5.28;;;4.78;;
48847;SDS011;75039;51.970;5.660;2024-02-14T13:30:49;6.47;;;5.20;;
48847;SDS011;75039;51.970;5.660;2024-02-14T13:33:18;6.70;;;4.70;;
48847;SDS011;75039;51.970;5.660;2024-02-14T13:35:45;7.72;;;5.03;;
48847;SDS011;75039;51.970;5.660;2024-02-14T13:38:11;7.30;;;5.63;;
48847;SDS011;75039;51.970;5.660;2024-02-14T13:40:39;8.10;;;5.63;;
48847;SDS011;75039;51.970;5.660;2024-02-14T13:43:06;6.55;;;5.85;;
48847;SDS011;75039;51.970;5.660;2024-02-14T13:45:43;7.07;;;6.18;;
48847;SDS011;75039;51.970;5.660;2024-02-14T13:48:11;7.15;;;6.40;;
48847;SDS011;75039;51.970;5.660;2024-02-14T13:50:39;11.77;;;6.93;;
48847;SDS011;75039;51.970;5.660;2024-02-14T13:53:08;8.63;;;6.20;;
48847;SDS011;75039;51.970;5.660;2024-02-14T13:55:34;7.57;;;6.72;;
48847;SDS011;75039;51.970;5.660;2024-02-14T13:58:01;8.00;;;7.20;;
48847;SDS011;75039;51.970;5.660;2024-02-14T14:00:28;8.93;;;7.18;;
48847;SDS011;75039;51.970;5.660;2024-02-14T14:02:55;8.40;;;7.53;;
48847;SDS011;75039;51.970;5.660;2024-02-14T14:05:22;9.48;;;7.88;;
48847;SDS011;75039;51.970;5.660;2024-02-14T14:07:49;10.18;;;8.07;;
48847;SDS011;75039;51.970;5.660;2024-02-14T14:10:24;9.38;;;8.38;;
48847;SDS011;75039;51.970;5.660;2024-02-14T14:12:53;11.35;;;8.25;;
48847;SDS011;75039;51.970;5.660;2024-02-14T14:15:20;9.68;;;8.65;;
48847;SDS011;75039;51.970;5.660;2024-02-14T14:17:51;11.55;;;8.25;;
48847;SDS011;75039;51.970;5.660;2024-02-14T14:20:18;10.45;;;9.20;;
48847;SDS011;75039;51.970;5.660;2024-02-14T14:22:46;12.00;;;9.25;;
48847;SDS011;75039;51.970;5.660;2024-02-14T14:25:13;12.30;;;8.88;;
48847;SDS011;75039;51.970;5.660;2024-02-14T14:27:40;12.15;;;9.32;;
48847;SDS011;75039;51.970;5.660;2024-02-14T14:30:07;10.77;;;9.07;;
48847;SDS011;75039;51.970;5.660;2024-02-14T14:32:34;10.48;;;9.38;;
48847;SDS011;75039;51.970;5.660;2024-02-14T14:35:01;11.80;;;9.00;;
48847;SDS011;75039;51.970;5.660;2024-02-14T14:37:28;9.75;;;8.73;;
48847;SDS011;75039;51.970;5.660;2024-02-14T14:39:55;10.50;;;9.07;;